N281MM KBCT-SKCG
Flight info
| Callsign | N281MM |
|---|---|
| Flight time | N/A |
| Altitude | 43000 |
| Route | TURPS2 HALBI DCT URSUS UP406 UBSUX UBSUX2A |
| Aircraft | GLF6/M-SBDE2E3FGHIJ4J5M1RWXY/LB1D1 |
Departure
| Time | N/A |
|---|---|
| Airport | Boca Raton Airport (KBCT) |
Arrival
| Time | 2026-04-24 20:10 |
|---|---|
| Airport | Rafael Nuñez International Airport (SKCG) |
| Time | Latitude | Longitude | Altitude | Speed | Heading |
|---|---|---|---|---|---|
| 2026-04-24 18:54 | 18.66414 | -77.99332 | 42928 ft | 479 kts | 175° |
| 2026-04-24 18:55 | 18.56628 | -77.97114 | 42920 ft | 478 kts | 175° |
| 2026-04-24 18:56 | 18.50116 | -77.95638 | 42920 ft | 477 kts | 175° |
| 2026-04-24 18:56 | 18.43625 | -77.94170 | 42926 ft | 477 kts | 175° |
| 2026-04-24 18:57 | 18.37116 | -77.92698 | 42949 ft | 476 kts | 175° |
| 2026-04-24 18:57 | 18.30638 | -77.91234 | 42952 ft | 475 kts | 175° |
| 2026-04-24 18:58 | 18.24156 | -77.89771 | 42957 ft | 475 kts | 174° |
| 2026-04-24 18:58 | 18.17654 | -77.88303 | 42955 ft | 475 kts | 174° |
| 2026-04-24 18:59 | 18.11159 | -77.86839 | 42943 ft | 475 kts | 174° |
| 2026-04-24 18:59 | 18.04681 | -77.85380 | 42942 ft | 476 kts | 174° |
| 2026-04-24 19:00 | 17.98200 | -77.83920 | 42911 ft | 475 kts | 174° |
| 2026-04-24 19:00 | 17.91720 | -77.82463 | 42920 ft | 474 kts | 174° |
| 2026-04-24 19:01 | 17.85258 | -77.81010 | 42923 ft | 474 kts | 174° |
| 2026-04-24 19:01 | 17.78803 | -77.79560 | 42917 ft | 474 kts | 175° |
| 2026-04-24 19:02 | 17.72325 | -77.78107 | 42927 ft | 474 kts | 174° |
| 2026-04-24 19:02 | 17.65846 | -77.76653 | 42932 ft | 474 kts | 175° |
| 2026-04-24 19:03 | 17.59351 | -77.75198 | 42924 ft | 474 kts | 175° |
| 2026-04-24 19:03 | 17.52894 | -77.73751 | 42927 ft | 473 kts | 175° |
| 2026-04-24 19:04 | 17.46401 | -77.72299 | 42930 ft | 475 kts | 174° |
| 2026-04-24 19:04 | 17.39941 | -77.70853 | 42932 ft | 473 kts | 175° |
| 2026-04-24 19:05 | 17.33509 | -77.69417 | 42922 ft | 473 kts | 175° |
| 2026-04-24 19:05 | 17.27053 | -77.67975 | 42923 ft | 474 kts | 175° |
| 2026-04-24 19:06 | 17.20579 | -77.66530 | 42922 ft | 473 kts | 174° |
| 2026-04-24 19:06 | 17.14138 | -77.65094 | 42927 ft | 473 kts | 174° |
| 2026-04-24 19:07 | 17.07687 | -77.63657 | 42912 ft | 473 kts | 175° |
| 2026-04-24 19:07 | 17.01237 | -77.62220 | 42924 ft | 474 kts | 175° |
| 2026-04-24 19:08 | 16.94755 | -77.60778 | 42925 ft | 473 kts | 175° |
| 2026-04-24 19:08 | 16.88310 | -77.59345 | 42930 ft | 474 kts | 175° |
| 2026-04-24 19:09 | 16.81884 | -77.57917 | 42932 ft | 472 kts | 175° |
| 2026-04-24 19:09 | 16.75425 | -77.56484 | 42922 ft | 474 kts | 174° |
| 2026-04-24 19:10 | 16.68984 | -77.55054 | 42933 ft | 474 kts | 174° |
| 2026-04-24 19:10 | 16.62545 | -77.53626 | 42925 ft | 474 kts | 175° |
| 2026-04-24 19:11 | 16.56087 | -77.52195 | 42930 ft | 473 kts | 175° |
| 2026-04-24 19:11 | 16.49620 | -77.50764 | 42926 ft | 473 kts | 174° |
| 2026-04-24 19:12 | 16.43154 | -77.49332 | 42923 ft | 473 kts | 174° |
| 2026-04-24 19:12 | 16.36734 | -77.47913 | 42923 ft | 473 kts | 174° |
| 2026-04-24 19:13 | 16.31324 | -77.46717 | 42922 ft | 473 kts | 174° |
| 2026-04-24 19:13 | 16.23775 | -77.45050 | 42923 ft | 474 kts | 174° |
| 2026-04-24 19:14 | 16.17358 | -77.43634 | 42930 ft | 473 kts | 174° |
| 2026-04-24 19:14 | 16.10866 | -77.42202 | 42926 ft | 475 kts | 174° |
| 2026-04-24 19:15 | 16.04420 | -77.40781 | 42923 ft | 474 kts | 174° |
| 2026-04-24 19:15 | 15.97950 | -77.39357 | 42921 ft | 473 kts | 175° |
| 2026-04-24 19:16 | 15.88218 | -77.37408 | 42929 ft | 473 kts | 175° |
| 2026-04-24 19:16 | 15.81733 | -77.36115 | 42932 ft | 474 kts | 175° |
| 2026-04-24 19:17 | 15.75283 | -77.34830 | 42924 ft | 474 kts | 175° |
| 2026-04-24 19:17 | 15.68774 | -77.33534 | 42916 ft | 474 kts | 175° |
| 2026-04-24 19:18 | 15.62302 | -77.32246 | 42916 ft | 474 kts | 175° |
| 2026-04-24 19:18 | 15.55801 | -77.30954 | 42915 ft | 475 kts | 175° |
| 2026-04-24 19:19 | 15.49305 | -77.29663 | 42916 ft | 475 kts | 175° |
| 2026-04-24 19:19 | 15.42799 | -77.28371 | 42915 ft | 475 kts | 175° |
| 2026-04-24 19:20 | 15.36320 | -77.27086 | 42914 ft | 476 kts | 175° |
| 2026-04-24 19:20 | 15.29777 | -77.25788 | 42914 ft | 475 kts | 175° |
| 2026-04-24 19:21 | 15.23301 | -77.24505 | 42913 ft | 476 kts | 175° |
| 2026-04-24 19:21 | 15.16763 | -77.23209 | 42915 ft | 476 kts | 175° |
| 2026-04-24 19:22 | 15.10245 | -77.21920 | 42913 ft | 476 kts | 175° |
| 2026-04-24 19:22 | 15.03745 | -77.20634 | 42912 ft | 477 kts | 175° |
| 2026-04-24 19:23 | 14.97209 | -77.19331 | 42913 ft | 478 kts | 175° |
| 2026-04-24 19:23 | 14.90645 | -77.18007 | 42915 ft | 478 kts | 175° |
| 2026-04-24 19:24 | 14.84087 | -77.16685 | 42915 ft | 478 kts | 174° |
| 2026-04-24 19:24 | 14.77564 | -77.15370 | 42916 ft | 478 kts | 175° |
| 2026-04-24 19:25 | 14.70992 | -77.14049 | 42918 ft | 479 kts | 174° |
| 2026-04-24 19:25 | 14.64460 | -77.12734 | 42918 ft | 478 kts | 174° |
| 2026-04-24 19:26 | 14.57916 | -77.11420 | 42914 ft | 480 kts | 174° |
| 2026-04-24 19:26 | 14.51360 | -77.10102 | 42915 ft | 480 kts | 174° |
| 2026-04-24 19:27 | 14.44771 | -77.08780 | 42915 ft | 479 kts | 174° |
| 2026-04-24 19:27 | 14.38228 | -77.07467 | 42918 ft | 481 kts | 174° |
| 2026-04-24 19:28 | 14.31652 | -77.06148 | 42915 ft | 482 kts | 174° |
| 2026-04-24 19:28 | 14.25053 | -77.04825 | 42914 ft | 480 kts | 174° |
| 2026-04-24 19:29 | 14.15184 | -77.02849 | 42914 ft | 481 kts | 174° |
| 2026-04-24 19:30 | 14.08581 | -77.01527 | 42915 ft | 482 kts | 173° |
| 2026-04-24 19:30 | 14.01974 | -77.00206 | 42915 ft | 482 kts | 173° |
| 2026-04-24 19:31 | 13.95392 | -76.98890 | 42915 ft | 482 kts | 173° |
| 2026-04-24 19:31 | 13.88803 | -76.97574 | 42922 ft | 482 kts | 173° |
| 2026-04-24 19:32 | 13.82194 | -76.96255 | 42922 ft | 482 kts | 173° |
| 2026-04-24 19:32 | 13.75597 | -76.94939 | 42923 ft | 482 kts | 173° |
| 2026-04-24 19:33 | 13.68991 | -76.93621 | 42916 ft | 482 kts | 173° |
| 2026-04-24 19:33 | 13.62411 | -76.92309 | 42921 ft | 482 kts | 173° |
| 2026-04-24 19:34 | 13.55831 | -76.90998 | 42915 ft | 483 kts | 173° |
| 2026-04-24 19:34 | 13.49226 | -76.89683 | 42920 ft | 483 kts | 173° |
| 2026-04-24 19:35 | 13.42589 | -76.88363 | 42922 ft | 482 kts | 173° |
| 2026-04-24 19:35 | 13.35982 | -76.87049 | 42922 ft | 483 kts | 173° |
| 2026-04-24 19:36 | 13.29386 | -76.85738 | 42916 ft | 482 kts | 173° |
| 2026-04-24 19:36 | 13.22785 | -76.84426 | 42917 ft | 481 kts | 173° |
| 2026-04-24 19:37 | 13.16176 | -76.83115 | 42922 ft | 482 kts | 173° |
| 2026-04-24 19:37 | 13.09616 | -76.81813 | 42916 ft | 482 kts | 173° |
| 2026-04-24 19:38 | 13.03014 | -76.80503 | 42915 ft | 482 kts | 173° |
| 2026-04-24 19:38 | 12.96430 | -76.79198 | 42917 ft | 482 kts | 173° |
| 2026-04-24 19:39 | 12.89796 | -76.77885 | 42914 ft | 482 kts | 173° |
| 2026-04-24 19:39 | 12.83217 | -76.76582 | 42914 ft | 481 kts | 172° |
| 2026-04-24 19:40 | 12.76620 | -76.75276 | 42919 ft | 482 kts | 173° |
| 2026-04-24 19:40 | 12.70017 | -76.73969 | 42915 ft | 481 kts | 172° |
| 2026-04-24 19:40 | 12.66836 | -76.72907 | 42932 ft | 486 kts | 160° |
| 2026-04-24 19:41 | 12.63758 | -76.71472 | 42899 ft | 487 kts | 159° |
| 2026-04-24 19:41 | 12.60701 | -76.70043 | 42896 ft | 470 kts | 159° |
| 2026-04-24 19:41 | 12.57765 | -76.68674 | 42878 ft | 452 kts | 159° |
| 2026-04-24 19:41 | 12.54952 | -76.67364 | 42868 ft | 439 kts | 159° |
| 2026-04-24 19:42 | 12.52210 | -76.66090 | 42862 ft | 438 kts | 159° |
| 2026-04-24 19:42 | 12.46561 | -76.63467 | 42731 ft | 451 kts | 159° |
| 2026-04-24 19:42 | 12.43670 | -76.62123 | 42232 ft | 455 kts | 159° |
| 2026-04-24 19:43 | 12.40809 | -76.60792 | 41739 ft | 453 kts | 159° |
| 2026-04-24 19:43 | 12.37916 | -76.59447 | 41228 ft | 448 kts | 159° |
| 2026-04-24 19:43 | 12.35088 | -76.58133 | 40741 ft | 445 kts | 159° |
| 2026-04-24 19:43 | 12.32291 | -76.56834 | 40257 ft | 444 kts | 159° |
| 2026-04-24 19:44 | 12.29417 | -76.55500 | 39765 ft | 446 kts | 159° |
| 2026-04-24 19:44 | 12.26590 | -76.54188 | 39282 ft | 447 kts | 159° |
| 2026-04-24 19:44 | 12.23747 | -76.52869 | 38788 ft | 448 kts | 159° |
| 2026-04-24 19:44 | 12.20883 | -76.51540 | 38316 ft | 448 kts | 159° |
| 2026-04-24 19:45 | 12.18042 | -76.50221 | 37825 ft | 448 kts | 159° |
| 2026-04-24 19:45 | 12.15199 | -76.48904 | 37331 ft | 450 kts | 159° |
| 2026-04-24 19:45 | 12.12346 | -76.47581 | 36831 ft | 450 kts | 159° |
| 2026-04-24 19:45 | 12.09478 | -76.46252 | 36332 ft | 451 kts | 159° |
| 2026-04-24 19:46 | 12.06606 | -76.44920 | 35829 ft | 452 kts | 159° |
| 2026-04-24 19:46 | 12.03744 | -76.43594 | 35330 ft | 454 kts | 159° |
| 2026-04-24 19:46 | 12.00854 | -76.42255 | 34821 ft | 455 kts | 159° |
| 2026-04-24 19:46 | 11.97976 | -76.40923 | 34321 ft | 457 kts | 159° |
| 2026-04-24 19:47 | 11.95061 | -76.39572 | 33811 ft | 459 kts | 159° |
| 2026-04-24 19:47 | 11.92164 | -76.38232 | 33308 ft | 460 kts | 159° |
| 2026-04-24 19:47 | 11.89210 | -76.36865 | 32794 ft | 462 kts | 158° |
| 2026-04-24 19:47 | 11.86293 | -76.35516 | 32321 ft | 464 kts | 159° |
| 2026-04-24 19:48 | 11.83312 | -76.34136 | 31804 ft | 466 kts | 159° |
| 2026-04-24 19:48 | 11.80355 | -76.32769 | 31286 ft | 468 kts | 159° |
| 2026-04-24 19:48 | 11.74433 | -76.30032 | 30254 ft | 473 kts | 158° |
| 2026-04-24 19:49 | 11.68448 | -76.27265 | 29200 ft | 466 kts | 158° |
| 2026-04-24 19:49 | 11.62593 | -76.24561 | 28193 ft | 459 kts | 158° |
| 2026-04-24 19:50 | 11.54002 | -76.20596 | 26691 ft | 453 kts | 158° |
| 2026-04-24 19:50 | 11.51133 | -76.19272 | 26189 ft | 450 kts | 158° |
| 2026-04-24 19:51 | 11.45440 | -76.16647 | 25192 ft | 446 kts | 158° |
| 2026-04-24 19:51 | 11.42611 | -76.15343 | 24696 ft | 444 kts | 158° |
| 2026-04-24 19:52 | 11.37025 | -76.12768 | 23719 ft | 440 kts | 157° |
| 2026-04-24 19:52 | 11.34257 | -76.11492 | 23241 ft | 438 kts | 157° |
| 2026-04-24 19:52 | 11.31469 | -76.10208 | 22760 ft | 435 kts | 157° |
| 2026-04-24 19:52 | 11.28728 | -76.08946 | 22280 ft | 434 kts | 157° |
| 2026-04-24 19:53 | 11.25982 | -76.07681 | 21813 ft | 430 kts | 157° |
| 2026-04-24 19:53 | 11.23273 | -76.06433 | 21340 ft | 426 kts | 157° |
| 2026-04-24 19:53 | 11.17892 | -76.03957 | 20401 ft | 417 kts | 157° |
| 2026-04-24 19:54 | 11.15275 | -76.02753 | 19942 ft | 414 kts | 156° |
| 2026-04-24 19:54 | 11.12649 | -76.01545 | 19483 ft | 410 kts | 157° |
| 2026-04-24 19:54 | 11.10075 | -76.00360 | 19034 ft | 406 kts | 157° |
| 2026-04-24 19:54 | 11.07500 | -75.99177 | 18582 ft | 403 kts | 156° |
| 2026-04-24 19:55 | 11.05786 | -75.98389 | 18282 ft | 401 kts | 156° |
| 2026-04-24 19:55 | 11.02424 | -75.96844 | 17691 ft | 396 kts | 156° |
| 2026-04-24 19:55 | 10.99940 | -75.95702 | 17258 ft | 392 kts | 156° |
| 2026-04-24 19:55 | 10.97433 | -75.94550 | 16820 ft | 390 kts | 156° |
| 2026-04-24 19:56 | 10.94997 | -75.93430 | 16394 ft | 386 kts | 156° |
| 2026-04-24 19:56 | 10.92541 | -75.92303 | 15963 ft | 383 kts | 156° |
| 2026-04-24 19:56 | 10.90105 | -75.91184 | 15537 ft | 381 kts | 156° |
| 2026-04-24 19:56 | 10.87682 | -75.90073 | 15112 ft | 379 kts | 157° |
| 2026-04-24 19:57 | 10.85304 | -75.88980 | 14696 ft | 376 kts | 157° |
| 2026-04-24 19:57 | 10.82917 | -75.87884 | 14281 ft | 373 kts | 157° |
| 2026-04-24 19:57 | 10.80575 | -75.86809 | 13874 ft | 370 kts | 156° |
| 2026-04-24 19:57 | 10.78216 | -75.85727 | 13457 ft | 368 kts | 157° |
| 2026-04-24 19:58 | 10.75906 | -75.84667 | 13051 ft | 365 kts | 157° |
| 2026-04-24 19:58 | 10.73579 | -75.83600 | 12642 ft | 364 kts | 157° |
| 2026-04-24 19:58 | 10.71276 | -75.82545 | 12237 ft | 362 kts | 157° |
| 2026-04-24 19:58 | 10.68976 | -75.81489 | 11832 ft | 359 kts | 157° |
| 2026-04-24 19:59 | 10.66720 | -75.80456 | 11447 ft | 358 kts | 157° |
| 2026-04-24 19:59 | 10.64428 | -75.79404 | 11040 ft | 355 kts | 157° |
| 2026-04-24 19:59 | 10.62205 | -75.78385 | 10643 ft | 348 kts | 157° |
| 2026-04-24 19:59 | 10.60036 | -75.77391 | 10289 ft | 337 kts | 156° |
| 2026-04-24 20:00 | 10.57921 | -75.76423 | 9916 ft | 327 kts | 157° |
| 2026-04-24 20:00 | 10.55861 | -75.75479 | 9536 ft | 318 kts | 157° |
| 2026-04-24 20:00 | 10.53858 | -75.74561 | 9189 ft | 309 kts | 157° |
| 2026-04-24 20:00 | 10.51919 | -75.73673 | 8848 ft | 301 kts | 157° |
| 2026-04-24 20:01 | 10.50043 | -75.72815 | 8519 ft | 294 kts | 156° |
| 2026-04-24 20:01 | 10.48191 | -75.71967 | 8203 ft | 288 kts | 157° |
| 2026-04-24 20:01 | 10.46386 | -75.71141 | 7889 ft | 284 kts | 157° |
| 2026-04-24 20:01 | 10.44572 | -75.70311 | 7587 ft | 284 kts | 157° |
| 2026-04-24 20:02 | 10.42780 | -75.69491 | 7256 ft | 283 kts | 157° |
| 2026-04-24 20:02 | 10.40970 | -75.68662 | 6940 ft | 283 kts | 157° |
| 2026-04-24 20:02 | 10.39188 | -75.67847 | 6641 ft | 282 kts | 156° |
| 2026-04-24 20:02 | 10.37379 | -75.67020 | 6318 ft | 281 kts | 156° |
| 2026-04-24 20:03 | 10.35614 | -75.66213 | 6007 ft | 280 kts | 156° |
| 2026-04-24 20:03 | 10.33831 | -75.65398 | 5702 ft | 279 kts | 156° |
| 2026-04-24 20:03 | 10.32060 | -75.64587 | 5394 ft | 278 kts | 156° |
| 2026-04-24 20:03 | 10.30285 | -75.63776 | 5088 ft | 277 kts | 156° |
| 2026-04-24 20:04 | 10.28518 | -75.62959 | 4763 ft | 276 kts | 153° |
| 2026-04-24 20:04 | 10.27140 | -75.61654 | 4457 ft | 276 kts | 119° |
| 2026-04-24 20:04 | 10.26644 | -75.59789 | 4118 ft | 274 kts | 93° |
| 2026-04-24 20:04 | 10.26561 | -75.57882 | 3802 ft | 272 kts | 91° |
| 2026-04-24 20:05 | 10.26487 | -75.56009 | 3557 ft | 257 kts | 91° |
| 2026-04-24 20:05 | 10.26491 | -75.54232 | 3195 ft | 246 kts | 80° |
| 2026-04-24 20:05 | 10.27291 | -75.52805 | 2886 ft | 233 kts | 40° |
| 2026-04-24 20:05 | 10.28706 | -75.52225 | 2857 ft | 209 kts | 8° |
| 2026-04-24 20:06 | 10.30131 | -75.51988 | 2512 ft | 208 kts | 7° |
| 2026-04-24 20:06 | 10.31578 | -75.51849 | 2196 ft | 205 kts | 4° |
| 2026-04-24 20:06 | 10.32978 | -75.51765 | 1956 ft | 194 kts | 2° |
| 2026-04-24 20:06 | 10.34226 | -75.51706 | 1658 ft | 166 kts | 1° |
| 2026-04-24 20:07 | 10.34957 | -75.51673 | 1514 ft | 148 kts | 1° |
| 2026-04-24 20:07 | 10.36186 | -75.51620 | 1246 ft | 122 kts | 1° |
| 2026-04-24 20:07 | 10.37030 | -75.51586 | 1115 ft | 121 kts | 2° |
| 2026-04-24 20:07 | 10.37880 | -75.51550 | 972 ft | 123 kts | 0° |
| 2026-04-24 20:08 | 10.38740 | -75.51514 | 821 ft | 121 kts | 1° |
| 2026-04-24 20:08 | 10.39584 | -75.51481 | 673 ft | 122 kts | 2° |
| 2026-04-24 20:08 | 10.40435 | -75.51444 | 519 ft | 122 kts | 359° |
| 2026-04-24 20:08 | 10.41316 | -75.51409 | 369 ft | 124 kts | 359° |
| 2026-04-24 20:09 | 10.42176 | -75.51379 | 212 ft | 123 kts | 359° |
| 2026-04-24 20:09 | 10.43028 | -75.51341 | 50 ft | 122 kts | 360° |
| 2026-04-24 20:09 | 10.43833 | -75.51306 | 11 ft | 102 kts | 359° |
| 2026-04-24 20:09 | 10.44433 | -75.51281 | 9 ft | 62 kts | 2° |
| 2026-04-24 20:10 | 10.44640 | -75.51272 | 9 ft | 13 kts | 3° |
| 2026-04-24 20:10 | 10.44670 | -75.51230 | 9 ft | 8 kts | 88° |
| 2026-04-24 20:10 | 10.44669 | -75.51169 | 9 ft | 8 kts | 91° |
| 2026-04-24 20:10 | 10.44667 | -75.51112 | 9 ft | 5 kts | 94° |
| 2026-04-24 20:11 | 10.44660 | -75.51079 | 9 ft | 4 kts | 107° |
| 2026-04-24 20:11 | 10.44655 | -75.51049 | 9 ft | 4 kts | 89° |
| 2026-04-24 20:11 | 10.44655 | -75.51037 | 9 ft | 0 kts | 92° |